Aldrich, Minnesota
Current Conditions -  °F | °C
As of 2:53 PM on Friday 31 Oct 2014 (Local Time) from KSAZ Reporting Station
Clear Clear  
Wind Chill: 34°   Ceiling: Unl
Heat Index: 37°   Visibility: 10mi
Dew Point: 14°   Wind: 5mph
Humidity: 38%   Direction: 170°S
Pressure: 30.49"   Gusts: NA
Location:  46.38°N, 94.94°W
Report Text: KSAZ 311953Z AUTO 17004KT 10SM CLR 03/M10 A3049 RMK AO2
Loading
Personal Weather Stations






























Interactive Weather Map
Tropical Storm Tracking
New forecast layout! Learn more

10-Day Weather Forecast

Advertisements
Track Severe Weather on mobile